createdAt,value
2018-01-29T00:00:04.855Z,7.40
2018-01-29T00:02:32.437Z,7.87
2018-01-29T00:05:05.464Z,9.23
2018-01-29T00:07:33.157Z,9.00
2018-01-29T00:10:00.766Z,8.75
2018-01-29T00:12:29.146Z,8.45
2018-01-29T00:14:57.475Z,8.27
2018-01-29T00:17:25.093Z,8.05
2018-01-29T00:19:52.749Z,6.50
2018-01-29T00:22:21.854Z,7.00
2018-01-29T00:24:49.874Z,6.85
2018-01-29T00:27:18.227Z,6.65
2018-01-29T00:29:45.796Z,6.47
2018-01-29T00:32:13.391Z,6.35
2018-01-29T00:34:40.964Z,5.15
2018-01-29T00:37:08.524Z,5.43
2018-01-29T00:39:36.351Z,5.12
2018-01-29T00:42:03.921Z,4.40
2018-01-29T00:44:31.506Z,5.00
2018-01-29T00:47:07.878Z,3.90
2018-01-29T00:49:37.313Z,4.03
2018-01-29T00:52:04.901Z,3.95
2018-01-29T00:54:32.537Z,4.07
2018-01-29T00:57:09.875Z,4.28
2018-01-29T00:59:37.484Z,4.12
2018-01-29T01:02:05.848Z,4.43
2018-01-29T01:04:33.444Z,4.10
2018-01-29T01:07:01.064Z,4.60
2018-01-29T01:09:28.659Z,4.65
2018-01-29T01:11:56.246Z,4.93
2018-01-29T01:14:23.859Z,5.53
2018-01-29T01:16:51.561Z,4.97
2018-01-29T01:19:19.187Z,4.97
2018-01-29T01:21:46.772Z,4.75
2018-01-29T01:24:15.167Z,4.65
2018-01-29T01:26:43.516Z,4.65
2018-01-29T01:29:11.130Z,4.80
2018-01-29T01:31:39.561Z,4.60
2018-01-29T01:34:07.384Z,4.32
2018-01-29T01:36:35.716Z,4.93
2018-01-29T01:39:03.272Z,4.40
2018-01-29T01:41:30.866Z,3.53
2018-01-29T01:43:58.415Z,4.85
2018-01-29T01:46:25.978Z,4.25
2018-01-29T01:48:54.332Z,4.87
2018-01-29T01:51:21.925Z,4.47
2018-01-29T01:53:49.647Z,4.30
2018-01-29T01:56:33.700Z,4.20
2018-01-29T01:59:01.331Z,3.58
2018-01-29T02:01:29.688Z,2.90
2018-01-29T02:03:57.326Z,2.20
2018-01-29T02:06:24.917Z,3.03
2018-01-29T02:08:52.530Z,3.37
2018-01-29T02:11:20.886Z,3.22
2018-01-29T02:13:48.492Z,3.90
2018-01-29T02:16:16.114Z,3.28
2018-01-29T02:18:43.671Z,2.85
2018-01-29T02:21:12.004Z,3.50
2018-01-29T02:23:40.594Z,3.05
2018-01-29T02:26:08.366Z,3.40
2018-01-29T02:28:35.992Z,2.70
2018-01-29T02:31:03.611Z,2.60
2018-01-29T02:33:31.213Z,2.60
2018-01-29T02:35:58.787Z,2.50
2018-01-29T02:38:26.399Z,2.70
2018-01-29T02:40:54.727Z,2.53
2018-01-29T02:43:32.405Z,2.58
2018-01-29T02:46:00.746Z,3.22
2018-01-29T02:48:28.406Z,2.75
2018-01-29T02:50:55.979Z,2.42
2018-01-29T02:53:23.554Z,3.28
2018-01-29T02:55:59.954Z,3.30
2018-01-29T02:58:27.557Z,2.50
2018-01-29T03:00:55.930Z,3.25
2018-01-29T03:03:23.573Z,3.20
2018-01-29T03:05:51.170Z,3.70
2018-01-29T03:08:18.862Z,3.17
2018-01-29T03:10:46.421Z,3.62
2018-01-29T03:13:14.041Z,2.95
2018-01-29T03:15:42.356Z,3.00
2018-01-29T03:18:09.990Z,2.70
2018-01-29T03:20:38.802Z,2.90
2018-01-29T03:23:07.199Z,3.30
2018-01-29T03:25:35.545Z,2.80
2018-01-29T03:28:03.124Z,2.92
2018-01-29T03:30:30.723Z,2.10
2018-01-29T03:32:59.124Z,2.55
2018-01-29T03:35:27.561Z,2.75
2018-01-29T03:38:09.882Z,2.30
2018-01-29T03:40:37.454Z,2.12
2018-01-29T03:43:05.048Z,2.12
2018-01-29T03:45:32.645Z,2.85
2018-01-29T03:48:01.360Z,2.08
2018-01-29T03:50:29.699Z,2.03
2018-01-29T03:52:57.265Z,2.20
2018-01-29T03:55:34.513Z,2.35
2018-01-29T03:58:02.144Z,1.95
2018-01-29T04:00:29.740Z,2.28
2018-01-29T04:02:57.363Z,2.42
2018-01-29T04:05:25.711Z,2.40
2018-01-29T04:07:53.309Z,2.10
2018-01-29T04:10:21.667Z,1.58
2018-01-29T04:13:08.077Z,1.98
2018-01-29T04:15:35.666Z,2.10
2018-01-29T04:18:03.220Z,1.75
2018-01-29T04:20:30.776Z,1.70
2018-01-29T04:22:58.338Z,2.58
2018-01-29T04:25:27.960Z,1.75
2018-01-29T04:27:57.296Z,2.05
2018-01-29T04:30:27.159Z,1.95
2018-01-29T04:32:56.421Z,1.83
2018-01-29T04:35:25.669Z,1.70
2018-01-29T04:38:10.670Z,1.80
2018-01-29T04:40:39.971Z,2.40
2018-01-29T04:43:09.249Z,1.98
2018-01-29T04:45:49.311Z,2.10
2018-01-29T04:48:18.553Z,1.98
2018-01-29T04:50:47.775Z,1.50
2018-01-29T04:53:16.990Z,1.90
2018-01-29T04:56:02.385Z,2.05
2018-01-29T04:58:31.600Z,1.90
2018-01-29T05:01:00.844Z,1.90
2018-01-29T05:03:30.249Z,1.85
2018-01-29T05:05:59.467Z,2.50
2018-01-29T05:08:28.693Z,1.50
2018-01-29T05:10:57.931Z,1.40
2018-01-29T05:13:27.148Z,1.42
2018-01-29T05:15:56.371Z,1.73
2018-01-29T05:18:25.730Z,2.03
2018-01-29T05:20:54.976Z,1.73
2018-01-29T05:23:24.192Z,1.70
2018-01-29T05:25:58.325Z,1.65
2018-01-29T05:28:28.440Z,1.50
2018-01-29T05:30:57.914Z,1.60
2018-01-29T05:33:27.175Z,1.42
2018-01-29T05:36:12.206Z,1.85
2018-01-29T05:38:56.342Z,1.85
2018-01-29T05:41:25.571Z,2.00
2018-01-29T05:43:54.834Z,1.92
2018-01-29T05:46:24.153Z,2.00
2018-01-29T05:48:53.382Z,2.37
2018-01-29T05:51:22.606Z,1.60
2018-01-29T05:53:53.262Z,2.45
2018-01-29T05:56:39.391Z,1.83
2018-01-29T05:59:08.665Z,1.60
2018-01-29T06:01:37.879Z,1.90
2018-01-29T06:04:07.175Z,2.05
2018-01-29T06:06:36.510Z,1.80
2018-01-29T06:09:05.763Z,1.75
2018-01-29T06:11:35.047Z,1.62
2018-01-29T06:14:04.314Z,1.65
2018-01-29T06:16:33.639Z,1.95
2018-01-29T06:19:02.983Z,1.60
2018-01-29T06:21:32.213Z,2.17
2018-01-29T06:24:01.476Z,1.25
2018-01-29T06:26:30.761Z,1.83
2018-01-29T06:28:59.991Z,1.40
2018-01-29T06:31:31.344Z,1.40
2018-01-29T06:34:00.949Z,1.42
2018-01-29T06:36:30.213Z,1.50
2018-01-29T06:38:59.428Z,1.60
2018-01-29T06:41:28.672Z,1.65
2018-01-29T06:43:57.903Z,1.20
2018-01-29T06:46:27.162Z,1.35
2018-01-29T06:48:56.452Z,1.33
2018-01-29T06:51:28.303Z,1.25
2018-01-29T06:53:57.545Z,1.60
2018-01-29T06:56:39.899Z,1.25
2018-01-29T06:59:09.229Z,1.20
2018-01-29T07:01:38.507Z,1.15
2018-01-29T07:04:07.756Z,1.60
2018-01-29T07:06:36.983Z,1.20
2018-01-29T07:09:06.270Z,1.70
2018-01-29T07:11:35.522Z,1.30
2018-01-29T07:14:04.760Z,1.20
2018-01-29T07:16:34.025Z,2.65
2018-01-29T07:19:03.323Z,2.75
2018-01-29T07:21:32.784Z,1.75
2018-01-29T07:24:02.034Z,2.15
2018-01-29T07:26:31.481Z,4.22
2018-01-29T07:29:00.756Z,13.82
2018-01-29T07:31:30.019Z,2.00
2018-01-29T07:34:03.625Z,2.00
2018-01-29T07:36:32.869Z,1.80
2018-01-29T07:39:02.087Z,1.77
2018-01-29T07:41:31.434Z,2.00
2018-01-29T07:44:00.660Z,2.00
2018-01-29T07:46:29.892Z,1.70
2018-01-29T07:48:59.195Z,1.75
2018-01-29T07:51:28.451Z,1.70
2018-01-29T07:53:57.690Z,1.60
2018-01-29T07:56:40.402Z,1.73
2018-01-29T07:59:09.617Z,1.45
2018-01-29T08:01:38.854Z,1.65
2018-01-29T08:04:08.093Z,1.35
2018-01-29T08:06:37.327Z,1.33
2018-01-29T08:09:06.614Z,1.42
2018-01-29T08:11:35.924Z,1.70
2018-01-29T08:14:06.104Z,1.30
2018-01-29T08:16:35.346Z,1.73
2018-01-29T08:19:04.569Z,1.33
2018-01-29T08:21:33.807Z,1.20
2018-01-29T08:24:03.120Z,1.20
2018-01-29T08:26:32.383Z,1.48
2018-01-29T08:29:01.631Z,1.35
2018-01-29T08:31:31.076Z,1.30
2018-01-29T08:34:00.320Z,1.15
2018-01-29T08:36:29.556Z,1.12
2018-01-29T08:38:58.808Z,1.23
2018-01-29T08:41:28.052Z,1.30
2018-01-29T08:43:57.277Z,1.25
2018-01-29T08:46:26.531Z,1.40
2018-01-29T08:48:55.784Z,1.62
2018-01-29T08:51:25.031Z,0.90
2018-01-29T08:53:54.257Z,1.67
2018-01-29T08:56:32.355Z,1.23
2018-01-29T08:59:01.729Z,1.40
2018-01-29T09:01:30.955Z,1.10
2018-01-29T09:04:00.588Z,0.80
2018-01-29T09:06:29.862Z,1.20
2018-01-29T09:08:59.115Z,1.27
2018-01-29T09:11:28.373Z,1.12
2018-01-29T09:13:57.628Z,1.00
2018-01-29T09:16:30.917Z,1.30
2018-01-29T09:19:00.403Z,1.45
2018-01-29T09:21:29.624Z,0.80
2018-01-29T09:23:58.982Z,0.90
2018-01-29T09:26:28.240Z,1.10
2018-01-29T09:28:57.584Z,0.93
2018-01-29T09:31:26.835Z,0.73
2018-01-29T09:33:56.073Z,0.80
2018-01-29T09:36:25.418Z,1.05
2018-01-29T09:38:54.665Z,0.85
2018-01-29T09:41:23.886Z,1.05
2018-01-29T09:43:53.145Z,0.93
2018-01-29T09:46:23.668Z,0.90
2018-01-29T09:48:52.944Z,1.50
2018-01-29T09:51:22.212Z,1.23
2018-01-29T09:53:51.497Z,0.98
2018-01-29T09:56:33.310Z,0.82
2018-01-29T09:59:02.572Z,3.70
2018-01-29T10:01:31.882Z,0.90
2018-01-29T10:04:01.169Z,1.00
2018-01-29T10:06:31.836Z,1.05
2018-01-29T10:09:01.139Z,0.77
2018-01-29T10:11:30.418Z,0.80
2018-01-29T10:13:59.696Z,0.60
2018-01-29T10:16:28.993Z,0.90
2018-01-29T10:18:58.236Z,0.80
2018-01-29T10:21:27.494Z,0.80
2018-01-29T10:23:56.734Z,1.33
2018-01-29T10:26:26.016Z,1.07
2018-01-29T10:28:55.293Z,1.00
2018-01-29T10:31:24.549Z,0.70
2018-01-29T10:33:53.811Z,0.70
2018-01-29T10:36:23.064Z,0.82
2018-01-29T10:38:52.441Z,1.00
2018-01-29T10:41:21.688Z,1.00
2018-01-29T10:43:50.944Z,1.20
2018-01-29T10:46:20.217Z,0.90
2018-01-29T10:48:49.428Z,0.60
2018-01-29T10:51:18.696Z,0.60
2018-01-29T10:53:47.948Z,0.80
2018-01-29T10:56:34.258Z,1.00
2018-01-29T10:59:03.537Z,0.60
2018-01-29T11:01:32.782Z,1.00
2018-01-29T11:04:02.028Z,0.90
2018-01-29T11:06:29.616Z,0.70
2018-01-29T11:08:57.201Z,0.70
2018-01-29T11:11:24.809Z,1.90
2018-01-29T11:13:52.499Z,0.80
2018-01-29T11:16:20.081Z,0.77
2018-01-29T11:18:53.611Z,0.80
2018-01-29T11:21:21.209Z,1.00
2018-01-29T11:23:48.801Z,0.90
2018-01-29T11:26:17.137Z,0.60
2018-01-29T11:28:44.945Z,0.80
2018-01-29T11:31:12.728Z,0.90
2018-01-29T11:33:41.366Z,0.70
2018-01-29T11:36:09.094Z,0.70
2018-01-29T11:38:37.432Z,1.23
2018-01-29T11:41:05.198Z,0.97
2018-01-29T11:43:32.844Z,1.10
2018-01-29T11:46:00.450Z,1.27
2018-01-29T11:48:28.218Z,0.70
2018-01-29T11:50:55.788Z,1.40
2018-01-29T11:53:26.641Z,0.90
2018-01-29T11:56:08.663Z,1.03
2018-01-29T11:58:36.261Z,0.70
2018-01-29T12:01:03.984Z,0.60
2018-01-29T12:03:32.342Z,0.70
2018-01-29T12:05:59.904Z,0.73
2018-01-29T12:08:27.593Z,0.67
2018-01-29T12:10:55.945Z,0.60
2018-01-29T12:13:23.528Z,0.90
2018-01-29T12:15:51.110Z,1.07
2018-01-29T12:18:18.678Z,0.70
2018-01-29T12:20:46.276Z,0.80
2018-01-29T12:23:13.839Z,0.80
2018-01-29T12:25:41.408Z,0.70
2018-01-29T12:28:08.986Z,0.60
2018-01-29T12:30:36.665Z,0.70
2018-01-29T12:33:04.247Z,0.70
2018-01-29T12:35:31.948Z,0.70
2018-01-29T12:38:00.302Z,0.70
2018-01-29T12:40:27.887Z,0.80
2018-01-29T12:42:55.536Z,0.67
2018-01-29T12:45:23.150Z,0.83
2018-01-29T12:47:50.745Z,0.70
2018-01-29T12:50:19.129Z,0.60
2018-01-29T12:52:46.674Z,0.50
2018-01-29T12:55:14.262Z,0.70
2018-01-29T12:57:56.929Z,0.67
2018-01-29T13:00:24.537Z,0.47
2018-01-29T13:02:52.260Z,0.80
2018-01-29T13:05:20.729Z,0.90
2018-01-29T13:07:48.359Z,0.50
2018-01-29T13:10:15.957Z,0.57
2018-01-29T13:12:43.774Z,0.47
2018-01-29T13:15:11.552Z,0.60
2018-01-29T13:17:39.157Z,0.60
2018-01-29T13:20:19.128Z,0.60
2018-01-29T13:22:46.764Z,0.80
2018-01-29T13:25:14.351Z,0.50
2018-01-29T13:27:42.711Z,0.50
2018-01-29T13:30:12.025Z,0.60
2018-01-29T13:32:39.670Z,0.50
2018-01-29T13:35:19.090Z,0.50
2018-01-29T13:37:46.692Z,0.50
2018-01-29T13:40:14.298Z,0.50
2018-01-29T13:42:41.891Z,0.73
2018-01-29T13:45:10.276Z,0.50
2018-01-29T13:47:38.626Z,0.50
2018-01-29T13:50:06.214Z,0.50
2018-01-29T13:52:34.157Z,0.50
2018-01-29T13:55:01.761Z,0.50
2018-01-29T13:57:40.571Z,0.50
2018-01-29T14:00:08.163Z,0.60
2018-01-29T14:02:35.830Z,0.50
2018-01-29T14:05:03.602Z,0.50
2018-01-29T14:07:31.588Z,0.50
2018-01-29T14:09:59.208Z,0.60
2018-01-29T14:12:26.796Z,0.40
2018-01-29T14:14:55.173Z,0.73
2018-01-29T14:17:23.615Z,0.50
2018-01-29T14:19:51.199Z,0.57
2018-01-29T14:22:19.421Z,0.57
2018-01-29T14:24:47.793Z,0.50
2018-01-29T14:27:15.776Z,0.50
2018-01-29T14:29:43.373Z,0.70
2018-01-29T14:32:11.780Z,0.47
2018-01-29T14:34:40.275Z,0.50
2018-01-29T14:37:07.882Z,0.50
2018-01-29T14:39:35.463Z,0.50
2018-01-29T14:42:14.328Z,0.53
2018-01-29T14:44:41.927Z,0.50
2018-01-29T14:47:10.264Z,0.60
2018-01-29T14:49:37.870Z,0.70
2018-01-29T14:52:06.228Z,0.50
2018-01-29T14:54:33.918Z,0.65
2018-01-29T14:57:14.020Z,0.50
2018-01-29T14:59:42.381Z,0.50
2018-01-29T15:02:09.974Z,0.50
2018-01-29T15:04:37.608Z,0.60
2018-01-29T15:07:05.267Z,0.50
2018-01-29T15:09:32.867Z,0.60
2018-01-29T15:12:06.640Z,0.70
2018-01-29T15:14:47.666Z,0.60
2018-01-29T15:17:30.196Z,0.50
2018-01-29T15:19:57.798Z,0.60
2018-01-29T15:22:25.522Z,0.65
2018-01-29T15:24:53.132Z,0.60
2018-01-29T15:27:20.834Z,0.60
2018-01-29T15:29:49.225Z,0.70
2018-01-29T15:32:17.040Z,0.57
2018-01-29T15:34:44.694Z,0.70
2018-01-29T15:37:12.554Z,0.60
2018-01-29T15:39:41.916Z,0.50
2018-01-29T15:42:09.839Z,0.65
2018-01-29T15:44:37.674Z,0.50
2018-01-29T15:47:05.425Z,0.50
2018-01-29T15:49:33.732Z,0.60
2018-01-29T15:52:01.558Z,0.70
2018-01-29T15:54:29.281Z,0.60
2018-01-29T15:57:07.293Z,0.90
2018-01-29T15:59:49.328Z,0.60
2018-01-29T16:02:17.382Z,0.60
2018-01-29T16:04:45.883Z,0.60
2018-01-29T16:07:13.895Z,0.75
2018-01-29T16:09:41.754Z,0.70
2018-01-29T16:12:12.921Z,0.60
2018-01-29T16:14:40.650Z,0.60
2018-01-29T16:17:09.312Z,0.80
2018-01-29T16:19:37.205Z,0.60
2018-01-29T16:22:05.034Z,0.60
2018-01-29T16:24:33.456Z,2.25
2018-01-29T16:27:01.365Z,1.80
2018-01-29T16:29:29.267Z,0.70
2018-01-29T16:31:56.992Z,0.90
2018-01-29T16:34:25.057Z,0.80
2018-01-29T16:36:52.809Z,0.68
2018-01-29T16:39:20.453Z,1.02
2018-01-29T16:41:48.314Z,0.60
2018-01-29T16:44:16.204Z,0.70
2018-01-29T16:46:45.207Z,0.60
2018-01-29T16:49:13.799Z,0.75
2018-01-29T16:51:42.000Z,0.80
2018-01-29T16:54:10.647Z,0.70
2018-01-29T16:56:49.975Z,0.90
2018-01-29T16:59:18.353Z,1.00
2018-01-29T17:01:57.063Z,0.90
2018-01-29T17:04:39.477Z,0.90
2018-01-29T17:07:07.093Z,0.90
2018-01-29T17:09:34.717Z,1.10
2018-01-29T17:12:02.788Z,0.77
2018-01-29T17:14:30.398Z,0.80
2018-01-29T17:16:57.967Z,0.80
2018-01-29T17:19:25.583Z,0.75
2018-01-29T17:21:53.961Z,1.70
2018-01-29T17:24:22.408Z,0.90
2018-01-29T17:26:49.999Z,1.05
2018-01-29T17:29:17.858Z,1.20
2018-01-29T17:31:45.471Z,1.00
2018-01-29T17:34:13.897Z,0.93
2018-01-29T17:36:41.509Z,0.77
2018-01-29T17:39:09.283Z,0.90
2018-01-29T17:41:36.933Z,1.60
2018-01-29T17:44:04.525Z,1.00
2018-01-29T17:46:32.133Z,0.98
2018-01-29T17:49:00.617Z,1.10
2018-01-29T17:51:29.010Z,0.80
2018-01-29T17:53:57.340Z,0.77
2018-01-29T17:56:34.472Z,0.85
2018-01-29T17:59:02.135Z,1.10
2018-01-29T18:01:29.760Z,0.90
2018-01-29T18:03:57.385Z,0.90
2018-01-29T18:06:24.990Z,0.80
2018-01-29T18:08:52.951Z,0.93
2018-01-29T18:11:20.703Z,0.98
2018-01-29T18:14:00.180Z,0.90
2018-01-29T18:16:27.810Z,1.10
2018-01-29T18:18:55.493Z,1.00
2018-01-29T18:21:23.070Z,1.02
2018-01-29T18:23:51.233Z,0.90
2018-01-29T18:26:18.832Z,0.70
2018-01-29T18:28:47.198Z,0.90
2018-01-29T18:31:14.932Z,0.62
2018-01-29T18:33:43.420Z,0.77
2018-01-29T18:36:11.800Z,0.65
2018-01-29T18:38:39.464Z,1.00
2018-01-29T18:41:07.173Z,0.90
2018-01-29T18:43:34.911Z,0.70
2018-01-29T18:46:02.785Z,0.70
2018-01-29T18:48:30.452Z,0.93
2018-01-29T18:50:58.084Z,0.90
2018-01-29T18:53:26.480Z,0.60
2018-01-29T18:56:09.762Z,0.70
2018-01-29T18:58:37.370Z,0.50
2018-01-29T19:01:05.736Z,0.68
2018-01-29T19:03:33.312Z,0.60
2018-01-29T19:06:01.008Z,0.60
2018-01-29T19:08:30.184Z,0.60
2018-01-29T19:10:57.874Z,0.82
2018-01-29T19:13:25.474Z,0.70
2018-01-29T19:15:53.867Z,0.70
2018-01-29T19:18:22.304Z,0.70
2018-01-29T19:20:49.906Z,0.50
2018-01-29T19:23:17.494Z,0.70
2018-01-29T19:25:45.069Z,0.70
2018-01-29T19:28:12.688Z,0.60
2018-01-29T19:30:40.309Z,0.70
2018-01-29T19:33:07.956Z,0.70
2018-01-29T19:35:35.561Z,0.52
2018-01-29T19:38:03.189Z,0.60
2018-01-29T19:40:30.813Z,0.60
2018-01-29T19:42:58.412Z,0.50
2018-01-29T19:45:27.027Z,0.45
2018-01-29T19:47:55.390Z,0.52
2018-01-29T19:50:23.055Z,0.50
2018-01-29T19:52:50.746Z,0.50
2018-01-29T19:55:18.350Z,0.90
2018-01-29T19:57:57.895Z,0.60
2018-01-29T20:00:27.168Z,0.50
2018-01-29T20:02:56.382Z,0.50
2018-01-29T20:05:25.919Z,0.50
2018-01-29T20:07:55.297Z,0.60
2018-01-29T20:10:24.558Z,0.70
2018-01-29T20:12:53.796Z,0.50
2018-01-29T20:15:23.040Z,0.50
2018-01-29T20:17:52.282Z,0.60
2018-01-29T20:20:21.762Z,0.60
2018-01-29T20:22:50.997Z,0.57
2018-01-29T20:25:20.335Z,0.50
2018-01-29T20:27:49.719Z,0.70
2018-01-29T20:30:18.936Z,0.70
2018-01-29T20:32:48.255Z,0.73
2018-01-29T20:35:17.595Z,0.60
2018-01-29T20:37:46.816Z,0.60
2018-01-29T20:40:16.112Z,0.62
2018-01-29T20:42:45.482Z,0.57
2018-01-29T20:45:14.772Z,0.70
2018-01-29T20:47:44.093Z,0.80
2018-01-29T20:50:13.323Z,0.70
2018-01-29T20:52:42.533Z,0.60
2018-01-29T20:55:11.816Z,0.60
2018-01-29T20:57:58.157Z,0.70
2018-01-29T21:00:28.015Z,0.75
2018-01-29T21:02:57.242Z,0.60
2018-01-29T21:05:26.560Z,0.75
2018-01-29T21:07:55.829Z,0.80
2018-01-29T21:10:25.082Z,0.85
2018-01-29T21:12:54.361Z,0.70
2018-01-29T21:15:23.604Z,0.80
2018-01-29T21:17:52.835Z,0.65
2018-01-29T21:20:22.071Z,0.70
2018-01-29T21:22:51.400Z,0.77
2018-01-29T21:25:20.684Z,0.70
2018-01-29T21:27:49.958Z,0.60
2018-01-29T21:30:19.414Z,0.60
2018-01-29T21:32:48.715Z,0.77
2018-01-29T21:35:17.969Z,0.70
2018-01-29T21:37:47.194Z,0.60
2018-01-29T21:40:16.432Z,0.70
2018-01-29T21:42:58.441Z,0.60
2018-01-29T21:45:27.813Z,0.70
2018-01-29T21:47:57.088Z,0.60
2018-01-29T21:50:26.349Z,0.65
2018-01-29T21:52:55.583Z,0.80
2018-01-29T21:55:24.992Z,0.70
2018-01-29T21:58:07.793Z,0.70
2018-01-29T22:00:50.367Z,0.70
2018-01-29T22:03:19.842Z,0.60
2018-01-29T22:05:49.140Z,0.52
2018-01-29T22:08:18.408Z,0.60
2018-01-29T22:10:47.989Z,0.60
2018-01-29T22:13:29.357Z,0.60
2018-01-29T22:16:12.443Z,0.80
2018-01-29T22:18:55.559Z,0.80
2018-01-29T22:21:25.247Z,0.60
2018-01-29T22:23:54.725Z,0.70
2018-01-29T22:26:24.016Z,0.70
2018-01-29T22:28:53.259Z,0.65
2018-01-29T22:31:22.721Z,0.70
2018-01-29T22:33:52.062Z,0.70
2018-01-29T22:36:21.298Z,0.75
2018-01-29T22:38:50.717Z,0.70
2018-01-29T22:41:19.928Z,0.82
2018-01-29T22:43:49.312Z,0.70
2018-01-29T22:46:18.534Z,0.77
2018-01-29T22:48:47.804Z,0.70
2018-01-29T22:51:17.056Z,0.80
2018-01-29T22:53:46.340Z,0.60
2018-01-29T22:56:27.039Z,0.70
2018-01-29T22:58:56.297Z,0.77
2018-01-29T23:01:25.653Z,0.68
2018-01-29T23:03:54.955Z,0.60
2018-01-29T23:06:24.188Z,0.60
2018-01-29T23:08:53.460Z,0.68
2018-01-29T23:11:22.740Z,0.57
2018-01-29T23:13:52.032Z,0.70
2018-01-29T23:16:21.276Z,0.62
2018-01-29T23:18:50.535Z,0.52
2018-01-29T23:21:20.010Z,0.68
2018-01-29T23:23:49.247Z,0.73
2018-01-29T23:26:18.501Z,0.50
2018-01-29T23:28:47.755Z,0.60
2018-01-29T23:31:17.120Z,0.90
2018-01-29T23:33:46.361Z,0.60
2018-01-29T23:36:15.668Z,0.65
2018-01-29T23:38:44.919Z,0.90
2018-01-29T23:41:14.169Z,0.85
2018-01-29T23:47:16.035Z,0.77
2018-01-29T23:49:45.300Z,0.90
2018-01-29T23:52:14.568Z,0.75
2018-01-29T23:54:44.401Z,0.60
2018-01-29T23:57:30.547Z,0.57
2018-01-29T23:59:59.815Z,0.80
